This is the latest recevied weather packets stored in our database for station/object AA9VI-10. If no packets are shown the sender has not sent any weather packets the latest 10 day(s).
| Time | Temp. | Humidity | Pressure | Rain* | Wind** | Luminosity | Snow |
|---|---|---|---|---|---|---|---|
| 1777321217 | 17.22° C | 82% | 1001.4 hPa | 0 mm | - | - | - |
| 1777320617 | 16.67° C | 83% | 1001.5 hPa | 0 mm | - | - | - |
| 1777320018 | 16.67° C | 84% | 1001.5 hPa | 0 mm | - | - | - |
| 1777319417 | 16.11° C | 85% | 1001.2 hPa | 0 mm | - | - | - |
| 1777318817 | 16.11° C | 86% | 1001.6 hPa | 0 mm | - | - | - |
| 1777318217 | 15.56° C | 86% | 1001.6 hPa | 0 mm | - | - | - |
| 1777317618 | 15.56° C | 87% | 1001.6 hPa | 0 mm | - | - | - |
| 1777317017 | 15° C | 88% | 1001.7 hPa | 0.25 mm | - | - | - |
| 1777316417 | 14.44° C | 90% | 1001.8 hPa | 1.02 mm | - | - | - |
| 1777315817 | 14.44° C | 90% | 1001.6 hPa | 1.78 mm | - | - | - |
| 1777315217 | 13.89° C | 90% | 1000.5 hPa | 3.3 mm | - | - | - |
| 1777314617 | 13.89° C | 91% | 1000.2 hPa | 5.33 mm | - | - | - |
| 1777314017 | 13.33° C | 90% | 1001.4 hPa | 6.86 mm | - | - | - |
| 1777313417 | 13.33° C | 89% | 1007.2 hPa | 7.37 mm | - | - | - |
| 1777312817 | 13.33° C | 89% | 1009.2 hPa | 8.38 mm | - | - | - |
| 1777312217 | 13.33° C | 89% | 1009.7 hPa | 8.38 mm | - | - | - |
| 1777311617 | 13.33° C | 88% | 1009.6 hPa | 6.86 mm | - | - | - |
| 1777311018 | 13.33° C | 87% | 1009.6 hPa | 4.83 mm | - | - | - |
| 1777310417 | 13.89° C | 86% | 1009.5 hPa | 3.3 mm | - | - | - |
| 1777309817 | 13.89° C | 85% | 1009.5 hPa | 2.54 mm | - | - | - |
| 1777309217 | 14.44° C | 82% | 1009.6 hPa | 0.76 mm | - | - | - |
| 1777308617 | 14.44° C | 80% | 1009.1 hPa | 0 mm | - | - | - |
| 1777308017 | 14.44° C | 80% | 1007.6 hPa | 0 mm | - | - | - |
| 1777307418 | 14.44° C | 81% | 1007.6 hPa | 0 mm | - | - | - |
| 1777306817 | 14.44° C | 82% | 1007.9 hPa | 0 mm | - | - | - |
* Rain latest hour (hover to see other rain measurements)
** Current wind speed in m/s (hover to see current wind gust speed)